Minerva Zenia — SYNB — position and weather

sailwx.info

Track history (hours):
 
Tides and Currents Weather Stations Pressure Air Temp Water Temp Dewpoint Dewpoint Depression Visibility Wind Speed Wind Dir Waves Ship Positions

Minerva Zenia

Last reported at 2017-Jun-15 23:13 UTC. Time now 2017-Jun-26 14:09 UTC.
Position N 35°06' W 012°48'.
Warning: this ship's position is 10 days out of date.

Length 248 m; draft 11 m.

Type: Tanker. MMSI: 240014000.

Date/timePositionNaut miles runAvg speedWind from/ knotsBaromVisibWave heightAir tempDewpointWater temp
2017-Jun-15 23:13N 35°06' W 012°48'1112.6
2017-Jun-15 22:22N 35°06' W 012°35'512.7
2017-Jun-15 22:00N 35°07' W 012°29'13512.4
2017-Jun-15 11:08N 35°29' W 009°46'2412.6
2017-Jun-15 09:14N 35°33' W 009°17'1912.6
2017-Jun-15 07:43N 35°36' W 008°54'312.5
2017-Jun-15 07:30N 35°37' W 008°51'612.6
2017-Jun-15 07:01N 35°38' W 008°43'612.6
2017-Jun-15 06:30N 35°39' W 008°36'612.4
2017-Jun-15 06:00N 35°40' W 008°28'712.5
2017-Jun-15 05:27N 35°41' W 008°20'512.5
2017-Jun-15 05:01N 35°42' W 008°13'1512.5
2017-Jun-15 03:48N 35°44' W 007°55'412.6
2017-Jun-15 03:30N 35°45' W 007°50'8412.5
2017-Jun-14 20:47N 35°57' W 006°08'311.9
2017-Jun-14 20:31N 35°57' W 006°04'711.8
2017-Jun-14 19:55N 35°57' W 005°55'511.3
2017-Jun-14 19:27N 35°58' W 005°48'410.2
2017-Jun-14 19:01N 35°57' W 005°43'510.0
2017-Jun-14 18:30N 35°57' W 005°37'510.4
2017-Jun-14 17:59N 35°59' W 005°30'510.3
2017-Jun-14 17:30N 36°01' W 005°25'510.1
2017-Jun-14 17:00N 36°03' W 005°19'3 6.6
2017-Jun-14 16:30N 36°06' W 005°17'4 7.1
2017-Jun-14 15:58N 36°06' W 005°12'21011.9
2017-Jun-13 22:16N 36°30' W 000°53'412.4
2017-Jun-13 21:59N 36°31' W 000°48'812.7
2017-Jun-13 21:22N 36°32' W 000°39'513.1
2017-Jun-13 21:00N 36°35' W 000°34'713.1
2017-Jun-13 20:29N 36°36' W 000°25'612.9
2017-Jun-13 20:00N 36°38' W 000°18'912.7
2017-Jun-13 19:18N 36°40' W 000°07'512.6
2017-Jun-13 18:52N 36°42' W 000°01'512.6
2017-Jun-13 18:30N 36°43' E 000°05'612.4
2017-Jun-13 18:00N 36°44' E 000°12'612.4
2017-Jun-13 17:30N 36°46' E 000°20'612.3
2017-Jun-13 17:00N 36°47' E 000°27'612.3
2017-Jun-13 16:30N 36°49' E 000°35'612.3
2017-Jun-13 16:00N 36°50' E 000°42'612.4
2017-Jun-13 15:30N 36°52' E 000°49'3412.4
2017-Jun-13 12:45N 37°01' E 001°31'1712.6
2017-Jun-13 11:25N 37°05' E 001°51'1112.6
2017-Jun-13 10:33N 37°07' E 002°05'212.7
2017-Jun-13 10:23N 37°08' E 002°07'512.7
2017-Jun-13 10:00N 37°09' E 002°13'612.7
2017-Jun-13 09:30N 37°10' E 002°21'612.6
2017-Jun-13 09:00N 37°11' E 002°29'612.4
2017-Jun-13 08:30N 37°12' E 002°36'612.3
2017-Jun-13 08:00N 37°13' E 002°44'612.4
2017-Jun-13 07:31N 37°13' E 002°52'612.2
2017-Jun-13 07:00N 37°13' E 002°59'612.3
2017-Jun-13 06:30N 37°14' E 003°07'612.4
2017-Jun-13 06:00N 37°15' E 003°15'612.4
2017-Jun-13 05:30N 37°15' E 003°23'612.4
2017-Jun-13 05:00N 37°16' E 003°30'612.4
2017-Jun-13 04:30N 37°16' E 003°38'612.4
2017-Jun-13 04:00N 37°17' E 003°46'612.4
2017-Jun-13 03:30N 37°18' E 003°54'612.3
2017-Jun-13 03:00N 37°19' E 004°01'1212.3
2017-Jun-13 02:03N 37°20' E 004°16'112.3
2017-Jun-13 02:00N 37°20' E 004°17'612.4
2017-Jun-13 01:30N 37°21' E 004°24'612.3
2017-Jun-13 01:00N 37°21' E 004°32'612.3
2017-Jun-13 00:30N 37°22' E 004°40'612.4
2017-Jun-12 23:59N 37°22' E 004°48'612.5
2017-Jun-12 23:30N 37°23' E 004°55'612.5
2017-Jun-12 23:00N 37°24' E 005°03'612.4
2017-Jun-12 22:30N 37°24' E 005°11'1612.3
2017-Jun-12 21:10N 37°26' E 005°32'312.4
2017-Jun-12 20:53N 37°27' E 005°36'512.3
2017-Jun-12 20:30N 37°27' E 005°42'1212.3
2017-Jun-12 19:31N 37°28' E 005°57'012.3
2017-Jun-12 19:30N 37°28' E 005°57'712.3
2017-Jun-12 18:55N 37°28' E 006°06'612.4
2017-Jun-12 18:28N 37°30' E 006°13'612.2
2017-Jun-12 17:56N 37°30' E 006°21'1412.4
2017-Jun-12 16:50N 37°32' E 006°38'1312.3
2017-Jun-12 15:45N 37°33' E 006°55'1512.3
2017-Jun-12 14:32N 37°35' E 007°14'1712.4
2017-Jun-12 13:11N 37°36' E 007°35'412.5
2017-Jun-12 12:52N 37°37' E 007°40'612.9
2017-Jun-12 12:23N 37°37' E 007°48'3512.8
2017-Jun-12 09:40N 37°41' E 008°31'212.8
2017-Jun-12 09:30N 37°41' E 008°34'612.9
2017-Jun-12 09:00N 37°41' E 008°42'612.9
2017-Jun-12 08:30N 37°42' E 008°50'612.7
2017-Jun-12 08:00N 37°42' E 008°58'712.6
2017-Jun-12 07:27N 37°42' E 009°07'1212.8
2017-Jun-12 06:32N 37°41' E 009°22'112.8
2017-Jun-12 06:29N 37°41' E 009°23'612.8
2017-Jun-12 05:59N 37°41' E 009°31'612.8
2017-Jun-12 05:30N 37°40' E 009°38'613.0
2017-Jun-12 05:00N 37°40' E 009°47'1413.0
2017-Jun-12 03:56N 37°39' E 010°04'612.6
2017-Jun-12 03:29N 37°39' E 010°11'612.5
2017-Jun-12 03:00N 37°38' E 010°19'612.4
2017-Jun-12 02:29N 37°36' E 010°27'612.5
2017-Jun-12 01:59N 37°35' E 010°34'612.5
2017-Jun-12 01:30N 37°33' E 010°42'612.6
2017-Jun-12 01:00N 37°32' E 010°50'612.3
2017-Jun-12 00:29N 37°30' E 010°57'612.9
2017-Jun-11 23:59N 37°29' E 011°05'2513.3
2017-Jun-11 22:04N 37°18' E 011°34'113.2
2017-Jun-11 21:58N 37°17' E 011°36'613.1
2017-Jun-11 21:30N 37°14' E 011°42'713.2
2017-Jun-11 21:00N 37°11' E 011°50'1312.9
2017-Jun-11 20:00N 37°06' E 012°05'712.3
2017-Jun-11 19:24N 37°01' E 012°12'1212.4
2017-Jun-11 18:28N 36°57' E 012°25'511.7
2017-Jun-11 18:00N 36°54' E 012°31'612.4
2017-Jun-11 17:30N 36°51' E 012°38'612.7
2017-Jun-11 17:00N 36°48' E 012°45'613.0
2017-Jun-11 16:30N 36°45' E 012°52'713.3
2017-Jun-11 16:00N 36°42' E 012°59'713.5
2017-Jun-11 15:30N 36°40' E 013°07'713.4
2017-Jun-11 15:00N 36°38' E 013°15'713.1
2017-Jun-11 14:30N 36°36' E 013°23'1312.9
2017-Jun-11 13:30N 36°31' E 013°38'612.9
2017-Jun-11 13:00N 36°29' E 013°46'613.0
2017-Jun-11 12:30N 36°28' E 013°53'713.0
2017-Jun-11 12:00N 36°26' E 014°01'612.9
2017-Jun-11 11:30N 36°24' E 014°09'612.9
2017-Jun-11 11:00N 36°22' E 014°17'612.9
2017-Jun-11 10:30N 36°20' E 014°24'712.8
2017-Jun-11 10:00N 36°16' E 014°31'612.5
2017-Jun-11 09:30N 36°11' E 014°35'612.7
2017-Jun-11 09:00N 36°07' E 014°41'612.7
2017-Jun-11 08:30N 36°02' E 014°47'5 9.2
2017-Jun-11 08:00N 36°01' E 014°52'0 0.1
2017-Jun-11 05:39N 36°01' E 014°52'0 0.0
2017-Jun-11 05:21N 36°01' E 014°52'0 0.0
2017-Jun-11 05:00N 36°01' E 014°52'0 0.0
2017-Jun-11 04:30N 36°01' E 014°52'0 0.0
2017-Jun-11 04:00N 36°01' E 014°52'0 0.0
2017-Jun-11 03:30N 36°01' E 014°52'0 0.0
2017-Jun-11 03:00N 36°01' E 014°52'0 0.0
2017-Jun-11 02:30N 36°01' E 014°52'0 0.0
2017-Jun-11 02:00N 36°01' E 014°52'0 0.0
2017-Jun-11 01:30N 36°01' E 014°52'0 0.0
2017-Jun-11 01:00N 36°01' E 014°52'0 0.1
2017-Jun-11 00:21N 36°01' E 014°52'0 0.1
2017-Jun-11 00:00N 36°01' E 014°52'0 0.1
2017-Jun-10 23:06N 36°01' E 014°52'0 0.1
2017-Jun-10 22:39N 36°01' E 014°52'0 0.0
2017-Jun-10 22:30N 36°01' E 014°52'0 0.0
2017-Jun-10 17:18N 36°01' E 014°52'0 0.1
2017-Jun-10 16:57N 36°01' E 014°52'0 0.0
2017-Jun-10 16:30N 36°01' E 014°52'0 0.0
2017-Jun-10 15:51N 36°01' E 014°52'0 0.0
2017-Jun-10 14:00N 36°01' E 014°52'0 0.0
2017-Jun-10 13:24N 36°01' E 014°52'0 0.0
2017-Jun-10 13:00N 36°01' E 014°52'0 0.0
2017-Jun-10 12:27N 36°01' E 014°52'0 0.0
2017-Jun-10 11:51N 36°01' E 014°52'0 0.0
2017-Jun-10 11:30N 36°01' E 014°52'0 0.0
2017-Jun-10 10:42N 36°01' E 014°52'0 0.0
2017-Jun-10 08:24N 36°01' E 014°52'0 0.0
2017-Jun-10 05:03N 36°01' E 014°52'0 0.1
2017-Jun-10 04:39N 36°01' E 014°52'0 0.0
2017-Jun-10 04:30N 36°01' E 014°52'0 0.0
2017-Jun-10 04:00N 36°01' E 014°52'0 0.1
2017-Jun-10 03:30N 36°01' E 014°52'0 0.0
2017-Jun-10 03:00N 36°01' E 014°52'0 0.0
2017-Jun-10 02:15N 36°01' E 014°52'0 0.0
2017-Jun-10 02:00N 36°01' E 014°52'0 0.1
2017-Jun-10 01:30N 36°01' E 014°52'2 3.1
2017-Jun-10 01:00N 36°01' E 014°54'4 8.6
2017-Jun-10 00:30N 36°02' E 014°59'611.8
2017-Jun-10 00:00N 36°01' E 015°07'611.8
2017-Jun-09 23:30N 36°01' E 015°14'612.3
2017-Jun-09 23:01N 36°01' E 015°22'612.5
2017-Jun-09 22:30N 36°01' E 015°29'2312.7
2017-Jun-09 20:42N 36°01' E 015°58'412.5
2017-Jun-09 20:24N 36°01' E 016°02'512.5
2017-Jun-09 20:00N 36°00' E 016°08'612.4
2017-Jun-09 19:30N 36°00' E 016°16'46910.1
2017-Jun-07 21:13N 39°10' E 025°17'412.5
2017-Jun-07 20:52N 39°14' E 025°19'3912.7
2017-Jun-07 17:45N 39°49' E 025°44'312.7
2017-Jun-07 17:30N 39°52' E 025°46'612.0
2017-Jun-07 16:59N 39°56' E 025°52'712.7
2017-Jun-07 16:27N 40°00' E 025°58'  
Track history (hours):
 
Tides and Currents Weather Stations Pressure Air Temp Water Temp Dewpoint Dewpoint Depression Visibility Wind Speed Wind Dir Waves Ship Positions

Minerva Zenia

Last reported at 2017-Jun-15 23:13 UTC. Time now 2017-Jun-26 14:09 UTC.
Position N 35°06' W 012°48'.
Warning: this ship's position is 10 days out of date.

Length 248 m; draft 11 m.

Type: Tanker. MMSI: 240014000.

Date/timePositionNaut miles runAvg speedWind from/ knotsBaromVisibWave heightAir tempDewpointWater temp
2017-Jun-15 23:13N 35°06' W 012°48'1112.6
2017-Jun-15 22:22N 35°06' W 012°35'512.7
2017-Jun-15 22:00N 35°07' W 012°29'13512.4
2017-Jun-15 11:08N 35°29' W 009°46'2412.6
2017-Jun-15 09:14N 35°33' W 009°17'1912.6
2017-Jun-15 07:43N 35°36' W 008°54'312.5
2017-Jun-15 07:30N 35°37' W 008°51'612.6
2017-Jun-15 07:01N 35°38' W 008°43'612.6
2017-Jun-15 06:30N 35°39' W 008°36'612.4
2017-Jun-15 06:00N 35°40' W 008°28'712.5
2017-Jun-15 05:27N 35°41' W 008°20'512.5
2017-Jun-15 05:01N 35°42' W 008°13'1512.5
2017-Jun-15 03:48N 35°44' W 007°55'412.6
2017-Jun-15 03:30N 35°45' W 007°50'8412.5
2017-Jun-14 20:47N 35°57' W 006°08'311.9
2017-Jun-14 20:31N 35°57' W 006°04'711.8
2017-Jun-14 19:55N 35°57' W 005°55'511.3
2017-Jun-14 19:27N 35°58' W 005°48'410.2
2017-Jun-14 19:01N 35°57' W 005°43'510.0
2017-Jun-14 18:30N 35°57' W 005°37'510.4
2017-Jun-14 17:59N 35°59' W 005°30'510.3
2017-Jun-14 17:30N 36°01' W 005°25'510.1
2017-Jun-14 17:00N 36°03' W 005°19'3 6.6
2017-Jun-14 16:30N 36°06' W 005°17'4 7.1
2017-Jun-14 15:58N 36°06' W 005°12'21011.9
2017-Jun-13 22:16N 36°30' W 000°53'412.4
2017-Jun-13 21:59N 36°31' W 000°48'812.7
2017-Jun-13 21:22N 36°32' W 000°39'513.1
2017-Jun-13 21:00N 36°35' W 000°34'713.1
2017-Jun-13 20:29N 36°36' W 000°25'612.9
2017-Jun-13 20:00N 36°38' W 000°18'912.7
2017-Jun-13 19:18N 36°40' W 000°07'512.6
2017-Jun-13 18:52N 36°42' W 000°01'512.6
2017-Jun-13 18:30N 36°43' E 000°05'612.4
2017-Jun-13 18:00N 36°44' E 000°12'612.4
2017-Jun-13 17:30N 36°46' E 000°20'612.3
2017-Jun-13 17:00N 36°47' E 000°27'612.3
2017-Jun-13 16:30N 36°49' E 000°35'612.3
2017-Jun-13 16:00N 36°50' E 000°42'612.4
2017-Jun-13 15:30N 36°52' E 000°49'3412.4
2017-Jun-13 12:45N 37°01' E 001°31'1712.6
2017-Jun-13 11:25N 37°05' E 001°51'1112.6
2017-Jun-13 10:33N 37°07' E 002°05'212.7
2017-Jun-13 10:23N 37°08' E 002°07'512.7
2017-Jun-13 10:00N 37°09' E 002°13'612.7
2017-Jun-13 09:30N 37°10' E 002°21'612.6
2017-Jun-13 09:00N 37°11' E 002°29'612.4
2017-Jun-13 08:30N 37°12' E 002°36'612.3
2017-Jun-13 08:00N 37°13' E 002°44'612.4
2017-Jun-13 07:31N 37°13' E 002°52'612.2
2017-Jun-13 07:00N 37°13' E 002°59'612.3
2017-Jun-13 06:30N 37°14' E 003°07'612.4
2017-Jun-13 06:00N 37°15' E 003°15'612.4
2017-Jun-13 05:30N 37°15' E 003°23'612.4
2017-Jun-13 05:00N 37°16' E 003°30'612.4
2017-Jun-13 04:30N 37°16' E 003°38'612.4
2017-Jun-13 04:00N 37°17' E 003°46'612.4
2017-Jun-13 03:30N 37°18' E 003°54'612.3
2017-Jun-13 03:00N 37°19' E 004°01'1212.3
2017-Jun-13 02:03N 37°20' E 004°16'112.3
2017-Jun-13 02:00N 37°20' E 004°17'612.4
2017-Jun-13 01:30N 37°21' E 004°24'612.3
2017-Jun-13 01:00N 37°21' E 004°32'612.3
2017-Jun-13 00:30N 37°22' E 004°40'612.4
2017-Jun-12 23:59N 37°22' E 004°48'612.5
2017-Jun-12 23:30N 37°23' E 004°55'612.5
2017-Jun-12 23:00N 37°24' E 005°03'612.4
2017-Jun-12 22:30N 37°24' E 005°11'1612.3
2017-Jun-12 21:10N 37°26' E 005°32'312.4
2017-Jun-12 20:53N 37°27' E 005°36'512.3
2017-Jun-12 20:30N 37°27' E 005°42'1212.3
2017-Jun-12 19:31N 37°28' E 005°57'012.3
2017-Jun-12 19:30N 37°28' E 005°57'712.3
2017-Jun-12 18:55N 37°28' E 006°06'612.4
2017-Jun-12 18:28N 37°30' E 006°13'612.2
2017-Jun-12 17:56N 37°30' E 006°21'1412.4
2017-Jun-12 16:50N 37°32' E 006°38'1312.3
2017-Jun-12 15:45N 37°33' E 006°55'1512.3
2017-Jun-12 14:32N 37°35' E 007°14'1712.4
2017-Jun-12 13:11N 37°36' E 007°35'412.5
2017-Jun-12 12:52N 37°37' E 007°40'612.9
2017-Jun-12 12:23N 37°37' E 007°48'3512.8
2017-Jun-12 09:40N 37°41' E 008°31'212.8
2017-Jun-12 09:30N 37°41' E 008°34'612.9
2017-Jun-12 09:00N 37°41' E 008°42'612.9
2017-Jun-12 08:30N 37°42' E 008°50'612.7
2017-Jun-12 08:00N 37°42' E 008°58'712.6
2017-Jun-12 07:27N 37°42' E 009°07'1212.8
2017-Jun-12 06:32N 37°41' E 009°22'112.8
2017-Jun-12 06:29N 37°41' E 009°23'612.8
2017-Jun-12 05:59N 37°41' E 009°31'612.8
2017-Jun-12 05:30N 37°40' E 009°38'613.0
2017-Jun-12 05:00N 37°40' E 009°47'1413.0
2017-Jun-12 03:56N 37°39' E 010°04'612.6
2017-Jun-12 03:29N 37°39' E 010°11'612.5
2017-Jun-12 03:00N 37°38' E 010°19'612.4
2017-Jun-12 02:29N 37°36' E 010°27'612.5
2017-Jun-12 01:59N 37°35' E 010°34'612.5
2017-Jun-12 01:30N 37°33' E 010°42'612.6
2017-Jun-12 01:00N 37°32' E 010°50'612.3
2017-Jun-12 00:29N 37°30' E 010°57'612.9
2017-Jun-11 23:59N 37°29' E 011°05'2513.3
2017-Jun-11 22:04N 37°18' E 011°34'113.2
2017-Jun-11 21:58N 37°17' E 011°36'613.1
2017-Jun-11 21:30N 37°14' E 011°42'713.2
2017-Jun-11 21:00N 37°11' E 011°50'1312.9
2017-Jun-11 20:00N 37°06' E 012°05'712.3
2017-Jun-11 19:24N 37°01' E 012°12'1212.4
2017-Jun-11 18:28N 36°57' E 012°25'511.7
2017-Jun-11 18:00N 36°54' E 012°31'612.4
2017-Jun-11 17:30N 36°51' E 012°38'612.7
2017-Jun-11 17:00N 36°48' E 012°45'613.0
2017-Jun-11 16:30N 36°45' E 012°52'713.3
2017-Jun-11 16:00N 36°42' E 012°59'713.5
2017-Jun-11 15:30N 36°40' E 013°07'713.4
2017-Jun-11 15:00N 36°38' E 013°15'713.1
2017-Jun-11 14:30N 36°36' E 013°23'1312.9
2017-Jun-11 13:30N 36°31' E 013°38'612.9
2017-Jun-11 13:00N 36°29' E 013°46'613.0
2017-Jun-11 12:30N 36°28' E 013°53'713.0
2017-Jun-11 12:00N 36°26' E 014°01'612.9
2017-Jun-11 11:30N 36°24' E 014°09'612.9
2017-Jun-11 11:00N 36°22' E 014°17'612.9
2017-Jun-11 10:30N 36°20' E 014°24'712.8
2017-Jun-11 10:00N 36°16' E 014°31'612.5
2017-Jun-11 09:30N 36°11' E 014°35'612.7
2017-Jun-11 09:00N 36°07' E 014°41'612.7
2017-Jun-11 08:30N 36°02' E 014°47'5 9.2
2017-Jun-11 08:00N 36°01' E 014°52'0 0.1
2017-Jun-11 05:39N 36°01' E 014°52'0 0.0
2017-Jun-11 05:21N 36°01' E 014°52'0 0.0
2017-Jun-11 05:00N 36°01' E 014°52'0 0.0
2017-Jun-11 04:30N 36°01' E 014°52'0 0.0
2017-Jun-11 04:00N 36°01' E 014°52'0 0.0
2017-Jun-11 03:30N 36°01' E 014°52'0 0.0
2017-Jun-11 03:00N 36°01' E 014°52'0 0.0
2017-Jun-11 02:30N 36°01' E 014°52'0 0.0
2017-Jun-11 02:00N 36°01' E 014°52'0 0.0
2017-Jun-11 01:30N 36°01' E 014°52'0 0.0
2017-Jun-11 01:00N 36°01' E 014°52'0 0.1
2017-Jun-11 00:21N 36°01' E 014°52'0 0.1
2017-Jun-11 00:00N 36°01' E 014°52'0 0.1
2017-Jun-10 23:06N 36°01' E 014°52'0 0.1
2017-Jun-10 22:39N 36°01' E 014°52'0 0.0
2017-Jun-10 22:30N 36°01' E 014°52'0 0.0
2017-Jun-10 17:18N 36°01' E 014°52'0 0.1
2017-Jun-10 16:57N 36°01' E 014°52'0 0.0
2017-Jun-10 16:30N 36°01' E 014°52'0 0.0
2017-Jun-10 15:51N 36°01' E 014°52'0 0.0
2017-Jun-10 14:00N 36°01' E 014°52'0 0.0
2017-Jun-10 13:24N 36°01' E 014°52'0 0.0
2017-Jun-10 13:00N 36°01' E 014°52'0 0.0
2017-Jun-10 12:27N 36°01' E 014°52'0 0.0
2017-Jun-10 11:51N 36°01' E 014°52'0 0.0
2017-Jun-10 11:30N 36°01' E 014°52'0 0.0
2017-Jun-10 10:42N 36°01' E 014°52'0 0.0
2017-Jun-10 08:24N 36°01' E 014°52'0 0.0
2017-Jun-10 05:03N 36°01' E 014°52'0 0.1
2017-Jun-10 04:39N 36°01' E 014°52'0 0.0
2017-Jun-10 04:30N 36°01' E 014°52'0 0.0
2017-Jun-10 04:00N 36°01' E 014°52'0 0.1
2017-Jun-10 03:30N 36°01' E 014°52'0 0.0
2017-Jun-10 03:00N 36°01' E 014°52'0 0.0
2017-Jun-10 02:15N 36°01' E 014°52'0 0.0
2017-Jun-10 02:00N 36°01' E 014°52'0 0.1
2017-Jun-10 01:30N 36°01' E 014°52'2 3.1
2017-Jun-10 01:00N 36°01' E 014°54'4 8.6
2017-Jun-10 00:30N 36°02' E 014°59'611.8
2017-Jun-10 00:00N 36°01' E 015°07'611.8
2017-Jun-09 23:30N 36°01' E 015°14'612.3
2017-Jun-09 23:01N 36°01' E 015°22'612.5
2017-Jun-09 22:30N 36°01' E 015°29'2312.7
2017-Jun-09 20:42N 36°01' E 015°58'412.5
2017-Jun-09 20:24N 36°01' E 016°02'512.5
2017-Jun-09 20:00N 36°00' E 016°08'612.4
2017-Jun-09 19:30N 36°00' E 016°16'46910.1
2017-Jun-07 21:13N 39°10' E 025°17'412.5
2017-Jun-07 20:52N 39°14' E 025°19'3912.7
2017-Jun-07 17:45N 39°49' E 025°44'312.7
2017-Jun-07 17:30N 39°52' E 025°46'612.0
2017-Jun-07 16:59N 39°56' E 025°52'712.7
2017-Jun-07 16:27N 40°00' E 025°58'  

Dump ship's entire track history